sensor_id;sensor_type;location;lat;lon;timestamp;pressure;altitude;pressure_sealevel;temperature;humidity
29467;BME280;60968;37.490;-122.288;2023-05-15T00:02:05;98334.09;;;19.47;74.16
29467;BME280;60968;37.490;-122.288;2023-05-15T00:05:07;98339.94;;;19.52;73.55
29467;BME280;60968;37.490;-122.288;2023-05-15T00:08:07;98343.25;;;19.56;73.83
29467;BME280;60968;37.490;-122.288;2023-05-15T00:11:08;98342.88;;;19.47;73.96
29467;BME280;60968;37.490;-122.288;2023-05-15T00:14:09;98342.03;;;19.32;74.65
29467;BME280;60968;37.490;-122.288;2023-05-15T00:17:10;98345.63;;;19.31;75.55
29467;BME280;60968;37.490;-122.288;2023-05-15T00:20:11;98352.59;;;19.47;74.24
29467;BME280;60968;37.490;-122.288;2023-05-15T00:23:12;98345.50;;;19.47;75.01
29467;BME280;60968;37.490;-122.288;2023-05-15T00:26:13;98344.19;;;19.26;75.10
29467;BME280;60968;37.490;-122.288;2023-05-15T00:29:14;98355.00;;;19.07;75.86
29467;BME280;60968;37.490;-122.288;2023-05-15T00:32:14;98357.78;;;18.89;76.97
29467;BME280;60968;37.490;-122.288;2023-05-15T00:35:15;98357.59;;;18.92;76.89
29467;BME280;60968;37.490;-122.288;2023-05-15T00:38:16;98362.69;;;18.65;77.63
29467;BME280;60968;37.490;-122.288;2023-05-15T00:41:17;98363.38;;;18.37;78.39
29467;BME280;60968;37.490;-122.288;2023-05-15T00:44:19;98384.66;;;18.33;79.89
29467;BME280;60968;37.490;-122.288;2023-05-15T00:47:21;98381.09;;;18.19;80.47
29467;BME280;60968;37.490;-122.288;2023-05-15T00:50:23;98369.88;;;18.15;80.14
29467;BME280;60968;37.490;-122.288;2023-05-15T00:53:27;98380.50;;;18.13;81.03
29467;BME280;60968;37.490;-122.288;2023-05-15T00:56:28;98380.94;;;18.22;81.22
29467;BME280;60968;37.490;-122.288;2023-05-15T00:59:31;98391.78;;;18.15;80.92
29467;BME280;60968;37.490;-122.288;2023-05-15T01:02:33;98394.88;;;18.08;82.09
29467;BME280;60968;37.490;-122.288;2023-05-15T01:05:33;98391.78;;;18.15;82.42
29467;BME280;60968;37.490;-122.288;2023-05-15T01:08:46;98387.88;;;18.07;83.16
29467;BME280;60968;37.490;-122.288;2023-05-15T01:11:49;98397.94;;;17.82;83.99
29467;BME280;60968;37.490;-122.288;2023-05-15T01:14:52;98398.34;;;17.75;84.99
29467;BME280;60968;37.490;-122.288;2023-05-15T01:17:54;98403.78;;;17.72;85.67
29467;BME280;60968;37.490;-122.288;2023-05-15T01:27:18;98411.19;;;17.65;87.03
29467;BME280;60968;37.490;-122.288;2023-05-15T01:30:35;98427.91;;;17.64;86.96
29467;BME280;60968;37.490;-122.288;2023-05-15T01:33:41;98427.41;;;17.73;86.93
29467;BME280;60968;37.490;-122.288;2023-05-15T01:36:46;98427.81;;;17.65;87.02
29467;BME280;60968;37.490;-122.288;2023-05-15T01:39:49;98433.28;;;17.45;87.99
29467;BME280;60968;37.490;-122.288;2023-05-15T01:43:02;98438.47;;;17.11;90.16
29467;BME280;60968;37.490;-122.288;2023-05-15T01:46:04;98435.16;;;16.71;92.27
29467;BME280;60968;37.490;-122.288;2023-05-15T01:49:08;98434.63;;;16.45;94.84
29467;BME280;60968;37.490;-122.288;2023-05-15T01:52:23;98429.72;;;16.38;96.11
29467;BME280;60968;37.490;-122.288;2023-05-15T01:55:28;98433.97;;;16.21;97.72
29467;BME280;60968;37.490;-122.288;2023-05-15T01:58:30;98439.75;;;16.10;98.73
29467;BME280;60968;37.490;-122.288;2023-05-15T02:01:33;98440.53;;;15.93;100.00
29467;BME280;60968;37.490;-122.288;2023-05-15T02:04:37;98435.25;;;15.93;100.00
29467;BME280;60968;37.490;-122.288;2023-05-15T02:07:39;98440.88;;;16.05;100.00
29467;BME280;60968;37.490;-122.288;2023-05-15T02:10:42;98437.31;;;16.06;100.00
29467;BME280;60968;37.490;-122.288;2023-05-15T02:13:44;98440.59;;;16.11;100.00
29467;BME280;60968;37.490;-122.288;2023-05-15T02:16:45;98444.56;;;16.20;100.00
29467;BME280;60968;37.490;-122.288;2023-05-15T02:19:46;98447.91;;;16.23;100.00
29467;BME280;60968;37.490;-122.288;2023-05-15T02:22:47;98456.44;;;16.09;100.00
29467;BME280;60968;37.490;-122.288;2023-05-15T02:36:19;98467.78;;;15.91;100.00
29467;BME280;60968;37.490;-122.288;2023-05-15T02:39:22;98478.72;;;16.01;100.00
29467;BME280;60968;37.490;-122.288;2023-05-15T02:42:23;98474.44;;;15.77;100.00
29467;BME280;60968;37.490;-122.288;2023-05-15T02:45:24;98486.50;;;15.83;100.00
29467;BME280;60968;37.490;-122.288;2023-05-15T02:48:26;98478.19;;;15.72;100.00
29467;BME280;60968;37.490;-122.288;2023-05-15T02:51:27;98483.78;;;15.64;100.00
29467;BME280;60968;37.490;-122.288;2023-05-15T02:54:28;98491.34;;;15.51;100.00
29467;BME280;60968;37.490;-122.288;2023-05-15T02:57:28;98488.88;;;15.05;100.00
29467;BME280;60968;37.490;-122.288;2023-05-15T03:00:29;98507.16;;;14.63;100.00
29467;BME280;60968;37.490;-122.288;2023-05-15T03:03:30;98495.22;;;14.54;100.00
29467;BME280;60968;37.490;-122.288;2023-05-15T03:06:31;98497.56;;;14.38;100.00
29467;BME280;60968;37.490;-122.288;2023-05-15T03:09:32;98508.25;;;14.33;100.00
29467;BME280;60968;37.490;-122.288;2023-05-15T03:12:33;98505.22;;;14.20;100.00
29467;BME280;60968;37.490;-122.288;2023-05-15T03:15:34;98508.19;;;14.11;100.00
29467;BME280;60968;37.490;-122.288;2023-05-15T03:18:35;98521.50;;;14.05;100.00
29467;BME280;60968;37.490;-122.288;2023-05-15T03:21:35;98524.31;;;13.99;100.00
29467;BME280;60968;37.490;-122.288;2023-05-15T03:24:36;98530.28;;;14.04;100.00
29467;BME280;60968;37.490;-122.288;2023-05-15T03:27:37;98533.44;;;13.88;100.00
29467;BME280;60968;37.490;-122.288;2023-05-15T03:30:38;98543.16;;;13.85;100.00
29467;BME280;60968;37.490;-122.288;2023-05-15T03:33:39;98554.31;;;13.90;100.00
29467;BME280;60968;37.490;-122.288;2023-05-15T03:36:40;98556.19;;;13.86;100.00
29467;BME280;60968;37.490;-122.288;2023-05-15T03:39:41;98554.56;;;13.82;100.00
29467;BME280;60968;37.490;-122.288;2023-05-15T03:42:42;98559.09;;;13.79;100.00
29467;BME280;60968;37.490;-122.288;2023-05-15T03:45:43;98567.06;;;13.76;100.00
29467;BME280;60968;37.490;-122.288;2023-05-15T03:48:44;98570.41;;;13.79;100.00
29467;BME280;60968;37.490;-122.288;2023-05-15T03:51:44;98574.84;;;13.77;100.00
29467;BME280;60968;37.490;-122.288;2023-05-15T03:54:45;98577.56;;;13.74;100.00
29467;BME280;60968;37.490;-122.288;2023-05-15T03:57:46;98577.59;;;13.72;100.00
29467;BME280;60968;37.490;-122.288;2023-05-15T04:00:47;98578.88;;;13.61;100.00
29467;BME280;60968;37.490;-122.288;2023-05-15T04:03:48;98585.97;;;13.57;100.00
29467;BME280;60968;37.490;-122.288;2023-05-15T04:06:49;98591.22;;;13.57;100.00
29467;BME280;60968;37.490;-122.288;2023-05-15T04:09:50;98591.31;;;13.54;100.00
29467;BME280;60968;37.490;-122.288;2023-05-15T04:12:51;98597.59;;;13.48;100.00
29467;BME280;60968;37.490;-122.288;2023-05-15T04:15:52;98603.25;;;13.34;100.00
29467;BME280;60968;37.490;-122.288;2023-05-15T04:18:53;98606.41;;;13.17;100.00
29467;BME280;60968;37.490;-122.288;2023-05-15T04:21:54;98605.75;;;13.11;100.00
29467;BME280;60968;37.490;-122.288;2023-05-15T04:24:54;98616.25;;;13.09;100.00
29467;BME280;60968;37.490;-122.288;2023-05-15T04:27:55;98620.88;;;13.01;100.00
29467;BME280;60968;37.490;-122.288;2023-05-15T04:30:56;98626.09;;;13.01;100.00
29467;BME280;60968;37.490;-122.288;2023-05-15T04:33:57;98622.91;;;12.91;100.00
29467;BME280;60968;37.490;-122.288;2023-05-15T04:36:58;98633.31;;;12.93;100.00
29467;BME280;60968;37.490;-122.288;2023-05-15T04:39:59;98639.19;;;13.01;100.00
29467;BME280;60968;37.490;-122.288;2023-05-15T04:42:59;98648.13;;;12.92;100.00
29467;BME280;60968;37.490;-122.288;2023-05-15T04:46:00;98652.72;;;12.84;100.00
29467;BME280;60968;37.490;-122.288;2023-05-15T04:49:01;98656.38;;;12.78;100.00
29467;BME280;60968;37.490;-122.288;2023-05-15T04:52:02;98648.75;;;12.70;100.00
29467;BME280;60968;37.490;-122.288;2023-05-15T04:55:03;98653.41;;;12.61;100.00
29467;BME280;60968;37.490;-122.288;2023-05-15T04:58:04;98664.78;;;12.58;100.00
29467;BME280;60968;37.490;-122.288;2023-05-15T05:01:05;98673.56;;;12.56;100.00
29467;BME280;60968;37.490;-122.288;2023-05-15T05:04:06;98665.88;;;12.51;100.00
29467;BME280;60968;37.490;-122.288;2023-05-15T05:07:07;98672.75;;;12.53;100.00
29467;BME280;60968;37.490;-122.288;2023-05-15T05:10:08;98677.00;;;12.58;100.00
29467;BME280;60968;37.490;-122.288;2023-05-15T05:13:09;98667.41;;;12.58;100.00
29467;BME280;60968;37.490;-122.288;2023-05-15T05:16:10;98664.78;;;12.58;100.00
29467;BME280;60968;37.490;-122.288;2023-05-15T05:19:11;98668.28;;;12.57;100.00
29467;BME280;60968;37.490;-122.288;2023-05-15T05:22:12;98668.34;;;12.56;100.00
29467;BME280;60968;37.490;-122.288;2023-05-15T05:25:12;98679.72;;;12.55;100.00
29467;BME280;60968;37.490;-122.288;2023-05-15T05:28:13;98678.94;;;12.51;100.00
29467;BME280;60968;37.490;-122.288;2023-05-15T05:31:14;98685.19;;;12.45;100.00
29467;BME280;60968;37.490;-122.288;2023-05-15T05:34:15;98685.34;;;12.39;100.00
29467;BME280;60968;37.490;-122.288;2023-05-15T05:37:16;98680.31;;;12.31;100.00
29467;BME280;60968;37.490;-122.288;2023-05-15T05:40:17;98673.59;;;12.23;100.00
29467;BME280;60968;37.490;-122.288;2023-05-15T05:43:18;98688.50;;;12.17;100.00
29467;BME280;60968;37.490;-122.288;2023-05-15T05:46:19;98695.53;;;12.15;100.00
29467;BME280;60968;37.490;-122.288;2023-05-15T05:49:20;98692.13;;;12.12;100.00
29467;BME280;60968;37.490;-122.288;2023-05-15T05:52:20;98683.53;;;12.08;100.00
29467;BME280;60968;37.490;-122.288;2023-05-15T05:55:23;98681.03;;;12.04;100.00
29467;BME280;60968;37.490;-122.288;2023-05-15T05:58:24;98678.53;;;11.99;100.00
29467;BME280;60968;37.490;-122.288;2023-05-15T06:01:25;98682.09;;;11.96;100.00
29467;BME280;60968;37.490;-122.288;2023-05-15T06:04:25;98690.88;;;11.91;100.00
29467;BME280;60968;37.490;-122.288;2023-05-15T06:07:26;98689.13;;;11.93;100.00
29467;BME280;60968;37.490;-122.288;2023-05-15T06:10:27;98698.69;;;11.94;100.00
29467;BME280;60968;37.490;-122.288;2023-05-15T06:13:28;98702.03;;;11.99;100.00
29467;BME280;60968;37.490;-122.288;2023-05-15T06:16:29;98707.25;;;11.99;100.00
29467;BME280;60968;37.490;-122.288;2023-05-15T06:19:30;98715.19;;;11.96;100.00
29467;BME280;60968;37.490;-122.288;2023-05-15T06:22:31;98709.06;;;11.97;100.00
29467;BME280;60968;37.490;-122.288;2023-05-15T06:25:32;98710.81;;;11.96;100.00
29467;BME280;60968;37.490;-122.288;2023-05-15T06:28:33;98713.50;;;11.92;100.00
29467;BME280;60968;37.490;-122.288;2023-05-15T06:31:34;98713.50;;;11.92;100.00
29467;BME280;60968;37.490;-122.288;2023-05-15T06:34:35;98719.56;;;11.92;100.00
29467;BME280;60968;37.490;-122.288;2023-05-15T06:37:36;98717.88;;;11.91;100.00
29467;BME280;60968;37.490;-122.288;2023-05-15T06:40:37;98710.88;;;11.92;100.00
29467;BME280;60968;37.490;-122.288;2023-05-15T06:43:38;98707.38;;;11.94;100.00
29467;BME280;60968;37.490;-122.288;2023-05-15T06:46:38;98703.69;;;12.03;100.00
29467;BME280;60968;37.490;-122.288;2023-05-15T06:49:39;98706.78;;;12.17;100.00
29467;BME280;60968;37.490;-122.288;2023-05-15T06:52:40;98706.66;;;12.24;100.00
29467;BME280;60968;37.490;-122.288;2023-05-15T06:55:41;98708.31;;;12.26;100.00
29467;BME280;60968;37.490;-122.288;2023-05-15T06:58:42;98709.25;;;12.24;100.00
29467;BME280;60968;37.490;-122.288;2023-05-15T07:01:43;98705.81;;;12.22;100.00
29467;BME280;60968;37.490;-122.288;2023-05-15T07:04:43;98711.16;;;12.17;100.00
29467;BME280;60968;37.490;-122.288;2023-05-15T07:07:44;98708.50;;;12.18;100.00
29467;BME280;60968;37.490;-122.288;2023-05-15T07:10:45;98710.28;;;12.18;100.00
29467;BME280;60968;37.490;-122.288;2023-05-15T07:13:46;98710.25;;;12.20;100.00
29467;BME280;60968;37.490;-122.288;2023-05-15T07:16:47;98711.09;;;12.20;100.00
29467;BME280;60968;37.490;-122.288;2023-05-15T07:19:48;98713.69;;;12.20;100.00
29467;BME280;60968;37.490;-122.288;2023-05-15T07:22:49;98711.94;;;12.21;100.00
29467;BME280;60968;37.490;-122.288;2023-05-15T07:25:54;98714.31;;;12.30;100.00
29467;BME280;60968;37.490;-122.288;2023-05-15T07:28:55;98711.41;;;12.42;100.00
29467;BME280;60968;37.490;-122.288;2023-05-15T07:31:56;98715.59;;;12.48;100.00
29467;BME280;60968;37.490;-122.288;2023-05-15T07:34:56;98713.66;;;12.56;100.00
29467;BME280;60968;37.490;-122.288;2023-05-15T07:37:57;98717.84;;;12.62;100.00
29467;BME280;60968;37.490;-122.288;2023-05-15T07:40:58;98714.97;;;12.71;100.00
29467;BME280;60968;37.490;-122.288;2023-05-15T07:43:59;98721.78;;;12.77;100.00
29467;BME280;60968;37.490;-122.288;2023-05-15T07:47:00;98725.19;;;12.80;100.00
29467;BME280;60968;37.490;-122.288;2023-05-15T07:50:01;98726.91;;;12.81;100.00
29467;BME280;60968;37.490;-122.288;2023-05-15T07:53:02;98727.66;;;12.85;100.00
29467;BME280;60968;37.490;-122.288;2023-05-15T07:56:03;98733.38;;;12.98;100.00
29467;BME280;60968;37.490;-122.288;2023-05-15T07:59:04;98727.19;;;13.02;100.00
29467;BME280;60968;37.490;-122.288;2023-05-15T08:02:06;98734.22;;;13.00;100.00
29467;BME280;60968;37.490;-122.288;2023-05-15T08:05:07;98731.91;;;12.89;100.00
29467;BME280;60968;37.490;-122.288;2023-05-15T08:08:08;98732.59;;;12.63;100.00
29467;BME280;60968;37.490;-122.288;2023-05-15T08:11:09;98737.13;;;12.58;100.00
29467;BME280;60968;37.490;-122.288;2023-05-15T08:14:09;98734.75;;;12.48;100.00
29467;BME280;60968;37.490;-122.288;2023-05-15T08:17:10;98732.03;;;12.18;100.00
29467;BME280;60968;37.490;-122.288;2023-05-15T08:20:12;98740.19;;;12.05;100.00
29467;BME280;60968;37.490;-122.288;2023-05-15T08:23:13;98743.69;;;12.04;100.00
29467;BME280;60968;37.490;-122.288;2023-05-15T08:26:13;98739.38;;;12.03;100.00
29467;BME280;60968;37.490;-122.288;2023-05-15T08:29:14;98730.16;;;11.86;100.00
29467;BME280;60968;37.490;-122.288;2023-05-15T08:32:15;98731.09;;;11.83;100.00
29467;BME280;60968;37.490;-122.288;2023-05-15T08:35:16;98725.03;;;11.83;100.00
29467;BME280;60968;37.490;-122.288;2023-05-15T08:38:17;98730.13;;;11.88;100.00
29467;BME280;60968;37.490;-122.288;2023-05-15T08:41:30;98728.50;;;11.83;100.00
29467;BME280;60968;37.490;-122.288;2023-05-15T08:44:32;98737.00;;;11.92;100.00
29467;BME280;60968;37.490;-122.288;2023-05-15T08:47:38;98731.59;;;11.99;100.00
29467;BME280;60968;37.490;-122.288;2023-05-15T08:50:39;98733.53;;;11.91;100.00
29467;BME280;60968;37.490;-122.288;2023-05-15T08:53:40;98730.81;;;11.97;100.00
29467;BME280;60968;37.490;-122.288;2023-05-15T08:56:42;98730.72;;;12.00;100.00
29467;BME280;60968;37.490;-122.288;2023-05-15T08:59:43;98734.84;;;12.09;100.00
29467;BME280;60968;37.490;-122.288;2023-05-15T09:02:45;98733.34;;;12.00;100.00
29467;BME280;60968;37.490;-122.288;2023-05-15T09:05:47;98734.94;;;12.06;100.00
29467;BME280;60968;37.490;-122.288;2023-05-15T09:08:49;98725.97;;;12.16;100.00
29467;BME280;60968;37.490;-122.288;2023-05-15T09:11:51;98731.59;;;12.01;100.00
29467;BME280;60968;37.490;-122.288;2023-05-15T09:18:10;98734.91;;;12.08;100.00
29467;BME280;60968;37.490;-122.288;2023-05-15T09:21:30;98732.94;;;12.16;100.00
29467;BME280;60968;37.490;-122.288;2023-05-15T09:24:30;98726.72;;;12.22;100.00
29467;BME280;60968;37.490;-122.288;2023-05-15T09:27:42;98725.56;;;12.32;100.00
29467;BME280;60968;37.490;-122.288;2023-05-15T09:30:43;98728.28;;;12.29;100.00
29467;BME280;60968;37.490;-122.288;2023-05-15T09:33:44;98731.28;;;12.13;100.00
29467;BME280;60968;37.490;-122.288;2023-05-15T09:36:45;98732.16;;;12.14;100.00
29467;BME280;60968;37.490;-122.288;2023-05-15T09:39:46;98732.31;;;12.06;100.00
29467;BME280;60968;37.490;-122.288;2023-05-15T09:42:53;98723.69;;;12.04;100.00
29467;BME280;60968;37.490;-122.288;2023-05-15T09:45:54;98725.28;;;12.10;100.00
29467;BME280;60968;37.490;-122.288;2023-05-15T09:48:55;98732.19;;;12.11;100.00
29467;BME280;60968;37.490;-122.288;2023-05-15T09:52:00;98734.72;;;12.15;100.00
29467;BME280;60968;37.490;-122.288;2023-05-15T09:55:01;98734.47;;;12.25;100.00
29467;BME280;60968;37.490;-122.288;2023-05-15T09:58:09;98728.34;;;12.26;100.00
29467;BME280;60968;37.490;-122.288;2023-05-15T10:01:10;98727.28;;;12.33;100.00
29467;BME280;60968;37.490;-122.288;2023-05-15T10:04:12;98723.75;;;12.35;100.00
29467;BME280;60968;37.490;-122.288;2023-05-15T10:07:35;98725.53;;;12.35;100.00
29467;BME280;60968;37.490;-122.288;2023-05-15T10:10:36;98724.59;;;12.38;100.00
29467;BME280;60968;37.490;-122.288;2023-05-15T10:13:37;98729.03;;;12.34;100.00
29467;BME280;60968;37.490;-122.288;2023-05-15T10:16:39;98733.53;;;12.27;100.00
29467;BME280;60968;37.490;-122.288;2023-05-15T10:19:41;98729.25;;;12.25;100.00
29467;BME280;60968;37.490;-122.288;2023-05-15T10:22:48;98732.66;;;12.28;100.00
29467;BME280;60968;37.490;-122.288;2023-05-15T10:25:51;98735.97;;;12.35;100.00
29467;BME280;60968;37.490;-122.288;2023-05-15T10:28:55;98737.59;;;12.39;100.00
29467;BME280;60968;37.490;-122.288;2023-05-15T10:31:59;98740.22;;;12.39;100.00
29467;BME280;60968;37.490;-122.288;2023-05-15T10:35:01;98742.03;;;12.35;100.00
29467;BME280;60968;37.490;-122.288;2023-05-15T10:38:05;98742.03;;;12.35;100.00
29467;BME280;60968;37.490;-122.288;2023-05-15T10:41:07;98753.34;;;12.36;100.00
29467;BME280;60968;37.490;-122.288;2023-05-15T10:44:09;98756.63;;;12.44;100.00
29467;BME280;60968;37.490;-122.288;2023-05-15T10:47:10;98756.00;;;12.34;100.00
29467;BME280;60968;37.490;-122.288;2023-05-15T10:50:12;98763.78;;;12.36;100.00
29467;BME280;60968;37.490;-122.288;2023-05-15T10:53:13;98755.31;;;12.28;100.00
29467;BME280;60968;37.490;-122.288;2023-05-15T10:56:15;98767.63;;;12.23;100.00
29467;BME280;60968;37.490;-122.288;2023-05-15T10:59:16;98765.09;;;12.20;100.00
29467;BME280;60968;37.490;-122.288;2023-05-15T11:02:26;98764.94;;;12.26;100.00
29467;BME280;60968;37.490;-122.288;2023-05-15T11:05:27;98774.63;;;12.21;100.00
29467;BME280;60968;37.490;-122.288;2023-05-15T11:08:28;98778.16;;;12.20;100.00
29467;BME280;60968;37.490;-122.288;2023-05-15T11:11:53;98776.47;;;12.17;100.00
29467;BME280;60968;37.490;-122.288;2023-05-15T11:18:02;98790.75;;;12.38;100.00
29467;BME280;60968;37.490;-122.288;2023-05-15T11:24:04;98794.06;;;12.45;100.00
29467;BME280;60968;37.490;-122.288;2023-05-15T11:27:05;98793.06;;;12.50;100.00
29467;BME280;60968;37.490;-122.288;2023-05-15T11:30:08;98793.81;;;12.54;100.00
29467;BME280;60968;37.490;-122.288;2023-05-15T11:33:10;98795.38;;;12.61;100.00
29467;BME280;60968;37.490;-122.288;2023-05-15T11:36:11;98801.56;;;12.59;100.00
29467;BME280;60968;37.490;-122.288;2023-05-15T11:39:13;98795.47;;;12.58;100.00
29467;BME280;60968;37.490;-122.288;2023-05-15T11:42:14;98799.75;;;12.61;100.00
29467;BME280;60968;37.490;-122.288;2023-05-15T11:45:15;98801.56;;;12.59;100.00
29467;BME280;60968;37.490;-122.288;2023-05-15T11:48:16;98800.59;;;12.61;100.00
29467;BME280;60968;37.490;-122.288;2023-05-15T11:51:26;98806.44;;;12.71;100.00
29467;BME280;60968;37.490;-122.288;2023-05-15T11:54:28;98803.88;;;12.69;100.00
29467;BME280;60968;37.490;-122.288;2023-05-15T11:57:29;98804.63;;;12.75;100.00
29467;BME280;60968;37.490;-122.288;2023-05-15T12:00:30;98801.84;;;12.81;100.00
29467;BME280;60968;37.490;-122.288;2023-05-15T12:03:32;98808.63;;;12.88;100.00
29467;BME280;60968;37.490;-122.288;2023-05-15T12:06:33;98806.19;;;12.82;100.00
29467;BME280;60968;37.490;-122.288;2023-05-15T12:09:34;98807.19;;;12.76;100.00
29467;BME280;60968;37.490;-122.288;2023-05-15T12:12:38;98799.13;;;12.84;100.00
29467;BME280;60968;37.490;-122.288;2023-05-15T12:15:45;98805.97;;;12.90;100.00
29467;BME280;60968;37.490;-122.288;2023-05-15T12:18:49;98806.84;;;12.90;100.00
29467;BME280;60968;37.490;-122.288;2023-05-15T12:21:49;98810.97;;;12.99;100.00
29467;BME280;60968;37.490;-122.288;2023-05-15T12:24:50;98811.84;;;12.98;100.00
29467;BME280;60968;37.490;-122.288;2023-05-15T12:27:51;98810.88;;;13.02;100.00
29467;BME280;60968;37.490;-122.288;2023-05-15T12:30:53;98806.56;;;13.01;100.00
29467;BME280;60968;37.490;-122.288;2023-05-15T12:33:55;98810.16;;;12.97;100.00
29467;BME280;60968;37.490;-122.288;2023-05-15T12:36:56;98810.03;;;13.01;100.00
29467;BME280;60968;37.490;-122.288;2023-05-15T12:40:07;98811.94;;;12.95;100.00
29467;BME280;60968;37.490;-122.288;2023-05-15T12:43:09;98823.38;;;12.91;100.00
29467;BME280;60968;37.490;-122.288;2023-05-15T12:46:12;98817.22;;;12.93;100.00
29467;BME280;60968;37.490;-122.288;2023-05-15T12:49:20;98829.25;;;12.99;100.00
29467;BME280;60968;37.490;-122.288;2023-05-15T12:52:21;98831.69;;;13.05;100.00
29467;BME280;60968;37.490;-122.288;2023-05-15T12:55:24;98831.41;;;13.16;100.00
29467;BME280;60968;37.490;-122.288;2023-05-15T12:58:25;98844.22;;;13.27;100.00
29467;BME280;60968;37.490;-122.288;2023-05-15T13:01:27;98838.84;;;13.31;100.00
29467;BME280;60968;37.490;-122.288;2023-05-15T13:04:31;98843.22;;;13.31;100.00
29467;BME280;60968;37.490;-122.288;2023-05-15T13:07:32;98846.03;;;13.23;100.00
29467;BME280;60968;37.490;-122.288;2023-05-15T13:10:35;98849.53;;;13.24;100.00
29467;BME280;60968;37.490;-122.288;2023-05-15T13:13:47;98845.28;;;13.19;100.00
29467;BME280;60968;37.490;-122.288;2023-05-15T13:16:48;98855.09;;;13.11;100.00
29467;BME280;60968;37.490;-122.288;2023-05-15T13:19:49;98854.91;;;13.17;100.00
29467;BME280;60968;37.490;-122.288;2023-05-15T13:22:50;98864.66;;;13.12;100.00
29467;BME280;60968;37.490;-122.288;2023-05-15T13:25:51;98868.91;;;13.16;100.00
29467;BME280;60968;37.490;-122.288;2023-05-15T13:28:52;98866.72;;;13.01;100.00
29467;BME280;60968;37.490;-122.288;2023-05-15T13:31:52;98879.47;;;13.12;100.00
29467;BME280;60968;37.490;-122.288;2023-05-15T13:34:53;98878.72;;;13.08;100.00
29467;BME280;60968;37.490;-122.288;2023-05-15T13:37:54;98883.81;;;13.13;100.00
29467;BME280;60968;37.490;-122.288;2023-05-15T13:40:55;98886.44;;;13.13;100.00
29467;BME280;60968;37.490;-122.288;2023-05-15T13:43:57;98889.94;;;13.12;100.00
29467;BME280;60968;37.490;-122.288;2023-05-15T13:46:58;98895.06;;;13.16;100.00
29467;BME280;60968;37.490;-122.288;2023-05-15T13:49:59;98897.53;;;13.23;100.00
29467;BME280;60968;37.490;-122.288;2023-05-15T13:53:00;98898.28;;;13.26;100.00
29467;BME280;60968;37.490;-122.288;2023-05-15T13:56:01;98909.38;;;13.36;100.00
29467;BME280;60968;37.490;-122.288;2023-05-15T13:59:01;98913.59;;;13.42;100.00
29467;BME280;60968;37.490;-122.288;2023-05-15T14:02:02;98916.34;;;13.37;100.00
29467;BME280;60968;37.490;-122.288;2023-05-15T14:05:07;98911.06;;;13.38;100.00
29467;BME280;60968;37.490;-122.288;2023-05-15T14:08:08;98916.25;;;13.40;100.00
29467;BME280;60968;37.490;-122.288;2023-05-15T14:11:09;98920.69;;;13.38;100.00
29467;BME280;60968;37.490;-122.288;2023-05-15T14:14:10;98923.31;;;13.38;100.00
29467;BME280;60968;37.490;-122.288;2023-05-15T14:17:10;98920.59;;;13.41;100.00
29467;BME280;60968;37.490;-122.288;2023-05-15T14:20:11;98927.56;;;13.42;100.00
29467;BME280;60968;37.490;-122.288;2023-05-15T14:23:12;98932.88;;;13.39;100.00
29467;BME280;60968;37.490;-122.288;2023-05-15T14:26:16;98940.56;;;13.45;100.00
29467;BME280;60968;37.490;-122.288;2023-05-15T14:29:17;98944.59;;;13.57;100.00
29467;BME280;60968;37.490;-122.288;2023-05-15T14:32:18;98942.75;;;13.61;100.00
29467;BME280;60968;37.490;-122.288;2023-05-15T14:35:19;98946.13;;;13.66;100.00
29467;BME280;60968;37.490;-122.288;2023-05-15T14:38:19;98962.50;;;13.72;100.00
29467;BME280;60968;37.490;-122.288;2023-05-15T14:41:20;98954.34;;;13.83;100.00
29467;BME280;60968;37.490;-122.288;2023-05-15T14:44:21;98961.59;;;13.73;100.00
29467;BME280;60968;37.490;-122.288;2023-05-15T14:47:22;98960.31;;;13.88;100.00
29467;BME280;60968;37.490;-122.288;2023-05-15T14:50:23;98965.50;;;13.90;100.00
29467;BME280;60968;37.490;-122.288;2023-05-15T14:53:24;98971.25;;;14.03;100.00
29467;BME280;60968;37.490;-122.288;2023-05-15T14:56:24;98969.13;;;14.16;100.00
29467;BME280;60968;37.490;-122.288;2023-05-15T14:59:26;98962.16;;;14.16;100.00
29467;BME280;60968;37.490;-122.288;2023-05-15T15:02:27;98962.03;;;14.19;100.00
29467;BME280;60968;37.490;-122.288;2023-05-15T15:05:28;98971.47;;;14.25;100.00
29467;BME280;60968;37.490;-122.288;2023-05-15T15:08:29;98972.72;;;14.12;100.00
29467;BME280;60968;37.490;-122.288;2023-05-15T15:11:30;98971.97;;;14.08;100.00
29467;BME280;60968;37.490;-122.288;2023-05-15T15:14:30;98976.88;;;14.19;100.00
29467;BME280;60968;37.490;-122.288;2023-05-15T15:17:31;98972.97;;;14.34;100.00
29467;BME280;60968;37.490;-122.288;2023-05-15T15:20:32;98978.69;;;14.47;100.00
29467;BME280;60968;37.490;-122.288;2023-05-15T15:23:34;98986.84;;;14.67;100.00
29467;BME280;60968;37.490;-122.288;2023-05-15T15:26:34;98985.59;;;14.79;100.00
29467;BME280;60968;37.490;-122.288;2023-05-15T15:29:35;98990.88;;;14.78;100.00
29467;BME280;60968;37.490;-122.288;2023-05-15T15:32:37;98995.19;;;14.80;100.00
29467;BME280;60968;37.490;-122.288;2023-05-15T15:35:38;98990.22;;;14.98;100.00
29467;BME280;60968;37.490;-122.288;2023-05-15T15:38:38;98996.19;;;15.03;100.00
29467;BME280;60968;37.490;-122.288;2023-05-15T15:41:39;99002.84;;;15.13;100.00